Jolley, Iowa
Current Conditions -  °F | °C
As of 6:15 PM on Wednesday 28 Jan 2015 (Local Time) from KSLB Reporting Station
Haze Haze  
Wind Chill: 28°   Ceiling: Unl
Heat Index: 34°   Visibility: 4mi
Dew Point: 34°   Wind: 7mph
Humidity: 100%   Direction: 350°N
Pressure: 29.71"   Gusts: NA
Location:  42.48°N, 94.72°W
Report Text: KSLB 290015Z AUTO 35006KT 4SM BR CLR 01/01 A2971 RMK AO2
Loading
Personal Weather Stations






























Interactive Weather Map New forecast layout! Learn more

10-Day Weather Forecast

Advertisements
Track Severe Weather on mobile